ULN weather

Chinggis Khaan International Airport
Ulan Bator, Ulanbaatar, Mongolia

Public forecast

Using degrees Celsius for public forecast. Weather courtesy of forecast.io.

Current aviation weather report (METAR) for Chinggis Khaan International Airport

Retrieved 2019/10/19 08:30 UTC (16 minutes ago):

ZMUB 190830Z 31007MPS 9999 FEW023 BKN030 M01/M03 Q1010 NOSIG RMK QFE6510 88 E CM

Aviation forecast (TAF) for Chinggis Khaan International Airport

Retrieved 2019/10/19 06:48 UTC (2 hours ago):

TAF TAF ZMUB 190440Z 1906/2012 34009MPS 6000 SN BLSN FEW020 BKN030 BKN080 TX00/1906Z TNM12/1923Z TEMPO 1906/1911 3000 BECMG 1910/1912 32007MPS SN BECMG 1913/1915 VRB02MPS 9999 NSW SCT033 SCT100